createdAt,value
2022-08-22T00:00:15.978Z,99660.66
2022-08-22T00:02:53.685Z,99725.63
2022-08-22T00:02:56.264Z,99720.56
2022-08-22T00:02:59.185Z,99663.97
2022-08-22T00:03:11.562Z,99677.22
2022-08-22T00:04:02.153Z,99652.97
2022-08-22T00:07:11.444Z,99661.97
2022-08-22T00:10:31.455Z,99657.84
2022-08-22T00:14:01.316Z,99666.37
2022-08-22T00:17:30.183Z,99659.44
2022-08-22T00:20:39.230Z,99660.22
2022-08-22T00:23:57.019Z,99661.97
2022-08-22T00:27:07.714Z,99671.09
2022-08-22T00:30:14.234Z,99665.56
2022-08-22T00:33:34.670Z,99668.41
2022-08-22T00:36:48.145Z,99670.78
2022-08-22T00:40:35.982Z,99664.94
2022-08-22T00:44:07.744Z,99657.69
2022-08-22T00:47:58.414Z,99657.53
2022-08-22T00:51:25.529Z,99655.31
2022-08-22T00:54:37.622Z,99663.03
2022-08-22T00:57:52.631Z,99655.31
2022-08-22T01:01:03.600Z,99661.81
2022-08-22T01:04:23.755Z,99659.44
2022-08-22T01:08:01.433Z,99665.59
2022-08-22T01:15:10.013Z,99664.16
2022-08-22T01:18:38.739Z,99665.72
2022-08-22T01:21:50.941Z,99664.81
2022-08-22T01:25:38.585Z,99658.03
2022-08-22T01:29:00.128Z,99667.63
2022-08-22T01:32:21.427Z,99663.22
2022-08-22T01:35:37.343Z,99661.97
2022-08-22T01:38:53.016Z,99662.91
2022-08-22T01:42:15.210Z,99655.78
2022-08-22T01:46:10.819Z,99661.81
2022-08-22T01:49:16.272Z,99661.31
2022-08-22T01:52:59.140Z,99666.03
2022-08-22T01:56:12.890Z,99671.72
2022-08-22T01:59:34.959Z,99660.38
2022-08-22T02:03:01.569Z,99662.91
2022-08-22T02:06:14.625Z,99655.97
2022-08-22T02:09:46.677Z,99649.19
2022-08-22T02:13:20.880Z,99657.22
2022-08-22T02:16:38.136Z,99655.78
2022-08-22T02:19:56.844Z,99644.44
2022-08-22T02:23:50.944Z,99648.69
2022-08-22T02:27:11.924Z,99639.25
2022-08-22T02:30:22.679Z,99639.88
2022-08-22T02:33:34.064Z,99629.16
2022-08-22T02:36:50.698Z,99634.50
2022-08-22T02:40:04.530Z,99635.91
2022-08-22T02:43:19.052Z,99643.81
2022-08-22T02:46:50.436Z,99639.72
2022-08-22T02:50:12.899Z,99636.75
2022-08-22T02:53:32.472Z,99633.91
2022-08-22T02:56:43.976Z,99631.53
2022-08-22T03:00:31.771Z,99632.66
2022-08-22T03:03:42.487Z,99638.31
2022-08-22T03:07:26.369Z,99638.03
2022-08-22T03:10:36.619Z,99633.91
2022-08-22T03:14:10.244Z,99637.09
2022-08-22T03:17:45.183Z,99635.81
2022-08-22T03:20:59.183Z,99643.97
2022-08-22T03:24:57.713Z,99640.03
2022-08-22T03:28:09.734Z,99646.78
2022-08-22T03:32:00.602Z,99655.44
2022-08-22T03:35:13.554Z,99659.41
2022-08-22T03:38:38.478Z,99662.75
2022-08-22T03:41:57.441Z,99665.09
2022-08-22T03:45:21.857Z,99670.94
2022-08-22T03:48:55.380Z,99669.69
2022-08-22T03:52:10.971Z,99668.44
2022-08-22T03:55:54.293Z,99666.06
2022-08-22T03:59:10.313Z,99664.66
2022-08-22T04:02:41.934Z,99679.13
2022-08-22T04:05:56.955Z,99678.66
2022-08-22T04:09:29.134Z,99673.63
2022-08-22T04:12:53.759Z,99671.88
2022-08-22T04:16:35.316Z,99671.06
2022-08-22T04:20:03.791Z,99668.56
2022-08-22T04:23:44.322Z,99666.66
2022-08-22T04:27:04.601Z,99667.88
2022-08-22T04:30:18.603Z,99674.38
2022-08-22T04:33:25.366Z,99669.78
2022-08-22T04:36:41.434Z,99677.19
2022-08-22T04:39:59.760Z,99684.91
2022-08-22T04:43:17.883Z,99685.97
2022-08-22T04:46:39.381Z,99687.06
2022-08-22T04:50:04.457Z,99688.63
2022-08-22T04:53:39.412Z,99685.06
2022-08-22T04:57:14.229Z,99686.38
2022-08-22T05:00:17.950Z,99688.59
2022-08-22T05:03:25.254Z,99692.00
2022-08-22T05:06:32.864Z,99694.34
2022-08-22T05:09:39.193Z,99687.22
2022-08-22T05:12:50.618Z,99689.88
2022-08-22T05:15:59.361Z,99682.06
2022-08-22T05:19:27.025Z,99692.53
2022-08-22T05:22:40.775Z,99694.59
2022-08-22T05:25:49.079Z,99695.72
2022-08-22T05:29:00.883Z,99702.53
2022-08-22T05:32:10.817Z,99705.28
2022-08-22T05:35:16.825Z,99707.09
2022-08-22T05:38:25.962Z,99706.47
2022-08-22T05:41:33.098Z,99712.28
2022-08-22T05:44:38.257Z,99715.50
2022-08-22T05:47:55.146Z,99717.88
2022-08-22T05:51:14.827Z,99710.75
2022-08-22T05:54:33.705Z,99717.78
2022-08-22T05:57:47.968Z,99729.88
2022-08-22T06:01:02.209Z,99725.94
2022-08-22T06:04:27.569Z,99741.44
2022-08-22T06:07:50.722Z,99733.63
2022-08-22T06:10:57.536Z,99742.63
2022-08-22T06:14:14.651Z,99740.81
2022-08-22T06:17:44.820Z,99748.22
2022-08-22T06:21:12.303Z,99742.63
2022-08-22T06:24:30.319Z,99750.25
2022-08-22T06:27:34.840Z,99741.94
2022-08-22T06:30:40.179Z,99744.63
2022-08-22T06:33:54.972Z,99749.56
2022-08-22T06:37:07.977Z,99746.28
2022-08-22T06:40:16.965Z,99751.97
2022-08-22T06:43:22.520Z,99752.19
2022-08-22T06:46:30.972Z,99753.53
2022-08-22T06:49:36.755Z,99754.03
2022-08-22T06:52:57.537Z,99755.69
2022-08-22T06:56:25.455Z,99754.72
2022-08-22T06:59:35.754Z,99747.94
2022-08-22T07:02:47.256Z,99754.66
2022-08-22T07:06:23.370Z,99753.78
2022-08-22T07:09:51.479Z,99759.66
2022-08-22T07:12:59.072Z,99762.44
2022-08-22T07:16:07.755Z,99763.91
2022-08-22T07:19:33.533Z,99756.81
2022-08-22T07:22:39.643Z,99759.50
2022-08-22T07:26:15.597Z,99760.88
2022-08-22T07:29:38.250Z,99766.94
2022-08-22T07:33:26.423Z,99770.16
2022-08-22T07:36:47.108Z,99762.47
2022-08-22T07:40:25.356Z,99764.09
2022-08-22T07:43:45.531Z,99774.31
2022-08-22T07:46:57.008Z,99771.44
2022-08-22T07:50:07.238Z,99776.12
2022-08-22T07:53:26.035Z,99764.66
2022-08-22T07:56:31.909Z,99768.59
2022-08-22T07:59:39.980Z,99776.53
2022-08-22T08:02:53.777Z,99776.53
2022-08-22T08:05:57.815Z,99766.84
2022-08-22T08:09:22.797Z,99775.28
2022-08-22T08:13:01.905Z,99769.78
2022-08-22T08:16:18.307Z,99775.78
2022-08-22T08:19:22.097Z,99776.62
2022-08-22T08:22:50.768Z,99775.72
2022-08-22T08:26:07.166Z,99778.34
2022-08-22T08:29:10.639Z,99782.19
2022-08-22T08:32:19.020Z,99784.19
2022-08-22T08:36:02.092Z,99786.47
2022-08-22T08:39:14.126Z,99781.78
2022-08-22T08:43:18.650Z,99777.47
2022-08-22T08:47:22.000Z,99780.34
2022-08-22T08:50:43.977Z,99779.84
2022-08-22T08:54:45.032Z,99777.09
2022-08-22T08:58:51.715Z,99775.38
2022-08-22T09:02:27.051Z,99777.28
2022-08-22T09:05:48.940Z,99776.28
2022-08-22T09:09:13.971Z,99777.69
2022-08-22T09:13:11.670Z,99771.47
2022-08-22T09:16:36.999Z,99786.03
2022-08-22T09:20:19.575Z,99785.28
2022-08-22T09:24:17.994Z,99783.47
2022-08-22T09:27:55.632Z,99785.13
2022-08-22T09:31:32.886Z,99785.81
2022-08-22T09:34:51.993Z,99787.44
2022-08-22T09:38:04.453Z,99783.41
2022-08-22T09:41:46.815Z,99786.00
2022-08-22T09:45:48.452Z,99786.69
2022-08-22T09:50:19.725Z,99788.56
2022-08-22T09:54:40.801Z,99801.25
2022-08-22T09:58:49.292Z,99806.03
2022-08-22T10:03:41.931Z,99809.13
2022-08-22T10:08:15.156Z,99798.00
2022-08-22T10:12:05.011Z,99798.50
2022-08-22T10:15:47.809Z,99792.72
2022-08-22T10:19:41.217Z,99790.09
2022-08-22T10:23:24.117Z,99799.31
2022-08-22T10:26:39.242Z,99792.44
2022-08-22T10:30:07.036Z,99805.22
2022-08-22T10:33:46.907Z,99791.12
2022-08-22T10:38:01.652Z,99807.31
2022-08-22T10:41:58.938Z,99803.06
2022-08-22T10:45:41.055Z,99795.94
2022-08-22T10:49:10.741Z,99802.91
2022-08-22T10:52:33.104Z,99800.69
2022-08-22T10:55:46.999Z,99800.03
2022-08-22T10:59:06.024Z,99798.16
2022-08-22T11:02:32.625Z,99792.91
2022-08-22T11:05:43.261Z,99795.22
2022-08-22T11:09:43.154Z,99790.91
2022-08-22T11:13:25.603Z,99793.63
2022-08-22T11:16:47.040Z,99789.91
2022-08-22T11:20:19.861Z,99792.50
2022-08-22T11:23:33.374Z,99793.19
2022-08-22T11:27:02.655Z,99795.81
2022-08-22T11:30:18.743Z,99790.09
2022-08-22T11:33:46.460Z,99789.53
2022-08-22T11:37:43.233Z,99787.25
2022-08-22T11:41:00.021Z,99793.03
2022-08-22T11:44:22.481Z,99780.87
2022-08-22T11:47:44.513Z,99775.19
2022-08-22T11:51:14.827Z,99776.78
2022-08-22T11:54:32.712Z,99778.81
2022-08-22T11:57:44.813Z,99786.88
2022-08-22T12:00:52.597Z,99777.56
2022-08-22T12:04:03.453Z,99767.31
2022-08-22T12:07:49.053Z,99765.34
2022-08-22T12:12:00.422Z,99755.22
2022-08-22T12:15:30.650Z,99754.63
2022-08-22T12:18:52.714Z,99761.41
2022-08-22T12:22:33.674Z,99766.25
2022-08-22T12:25:39.595Z,99761.25
2022-08-22T12:29:03.746Z,99763.16
2022-08-22T12:32:32.122Z,99762.44
2022-08-22T12:36:17.914Z,99759.34
2022-08-22T12:39:41.152Z,99763.88
2022-08-22T12:42:58.675Z,99756.91
2022-08-22T12:46:38.567Z,99760.62
2022-08-22T12:50:13.125Z,99759.75
2022-08-22T12:53:34.023Z,99773.59
2022-08-22T12:57:35.413Z,99771.41
2022-08-22T13:00:47.428Z,99767.84
2022-08-22T13:04:01.159Z,99766.31
2022-08-22T13:07:10.529Z,99775.06
2022-08-22T13:10:17.433Z,99771.97
2022-08-22T13:13:56.717Z,99769.97
2022-08-22T13:17:15.237Z,99766.97
2022-08-22T13:20:41.793Z,99758.53
2022-08-22T13:23:54.011Z,99759.34
2022-08-22T13:27:05.785Z,99767.44
2022-08-22T13:30:17.342Z,99759.22
2022-08-22T13:33:33.486Z,99752.00
2022-08-22T13:36:51.675Z,99762.59
2022-08-22T13:40:08.949Z,99768.72
2022-08-22T13:43:38.379Z,99779.63
2022-08-22T13:47:13.186Z,99772.72
2022-08-22T13:50:37.610Z,99789.06
2022-08-22T13:54:12.543Z,99786.63
2022-08-22T13:57:43.223Z,99790.31
2022-08-22T14:01:43.884Z,99784.66
2022-08-22T14:05:14.165Z,99788.91
2022-08-22T14:08:28.565Z,99786.31
2022-08-22T14:11:43.606Z,99783.12
2022-08-22T14:14:56.851Z,99782.59
2022-08-22T14:18:45.719Z,99782.84
2022-08-22T14:22:32.514Z,99785.47
2022-08-22T14:25:44.356Z,99769.75
2022-08-22T14:28:56.858Z,99774.69
2022-08-22T14:32:12.311Z,99769.88
2022-08-22T14:35:52.823Z,99769.28
2022-08-22T14:39:06.632Z,99771.06
2022-08-22T14:42:20.081Z,99762.22
2022-08-22T14:45:35.568Z,99770.19
2022-08-22T14:49:16.557Z,99770.19
2022-08-22T14:52:35.919Z,99771.28
2022-08-22T14:55:41.964Z,99773.06
2022-08-22T14:58:53.919Z,99783.69
2022-08-22T15:02:13.048Z,99775.84
2022-08-22T15:05:23.507Z,99772.91
2022-08-22T15:08:46.431Z,99771.44
2022-08-22T15:12:46.938Z,99775.62
2022-08-22T15:16:46.180Z,99764.50
2022-08-22T15:19:55.423Z,99767.69
2022-08-22T15:23:20.886Z,99773.13
2022-08-22T15:26:39.770Z,99775.28
2022-08-22T15:30:06.780Z,99775.97
2022-08-22T15:33:54.863Z,99787.75
2022-08-22T15:37:09.944Z,99802.41
2022-08-22T15:40:40.893Z,99804.19
2022-08-22T15:43:49.318Z,99796.69
2022-08-22T15:47:12.005Z,99793.97
2022-08-22T15:51:05.355Z,99797.47
2022-08-22T15:54:54.017Z,99805.84
2022-08-22T15:58:24.815Z,99801.63
2022-08-22T16:01:43.309Z,99817.09
2022-08-22T16:05:36.923Z,99821.34
2022-08-22T16:09:03.404Z,99826.16
2022-08-22T16:12:28.683Z,99819.72
2022-08-22T16:16:32.353Z,99818.75
2022-08-22T16:19:39.965Z,99819.47
2022-08-22T16:22:57.583Z,99811.28
2022-08-22T16:26:30.496Z,99819.69
2022-08-22T16:29:42.347Z,99819.13
2022-08-22T16:32:54.637Z,99813.34
2022-08-22T16:36:21.582Z,99811.69
2022-08-22T16:39:58.925Z,99810.00
2022-08-22T16:43:23.584Z,99810.59
2022-08-22T16:47:22.142Z,99804.34
2022-08-22T16:51:05.829Z,99798.94
2022-08-22T16:54:46.426Z,99805.69
2022-08-22T16:58:09.389Z,99813.69
2022-08-22T17:01:42.698Z,99804.78
2022-08-22T17:05:22.724Z,99807.03
2022-08-22T17:08:55.318Z,99808.16
2022-08-22T17:12:16.747Z,99821.97
2022-08-22T17:15:39.507Z,99826.91
2022-08-22T17:19:28.630Z,99823.88
2022-08-22T17:22:41.682Z,99828.44
2022-08-22T17:25:53.436Z,99823.69
2022-08-22T17:29:38.128Z,99835.03
2022-08-22T17:33:19.892Z,99837.03
2022-08-22T17:37:11.712Z,99849.47
2022-08-22T17:40:36.206Z,99857.59
2022-08-22T17:44:14.757Z,99856.03
2022-08-22T17:47:49.509Z,99863.63
2022-08-22T17:51:28.357Z,99859.72
2022-08-22T17:54:49.169Z,99858.34
2022-08-22T17:58:31.860Z,99854.53
2022-08-22T18:01:56.416Z,99856.63
2022-08-22T18:05:19.515Z,99856.75
2022-08-22T18:12:51.703Z,99854.72
2022-08-22T18:16:47.800Z,99854.94
2022-08-22T18:20:05.912Z,99850.91
2022-08-22T18:23:35.432Z,99860.53
2022-08-22T18:27:08.287Z,99853.88
2022-08-22T18:30:48.197Z,99860.53
2022-08-22T18:34:05.135Z,99858.97
2022-08-22T18:37:17.571Z,99870.19
2022-08-22T18:40:30.526Z,99871.63
2022-08-22T18:43:57.216Z,99879.84
2022-08-22T18:47:15.970Z,99892.81
2022-08-22T18:50:32.990Z,99889.81
2022-08-22T18:53:46.150Z,99892.03
2022-08-22T18:57:23.510Z,99885.84
2022-08-22T19:00:54.962Z,99892.38
2022-08-22T19:04:25.459Z,99892.38
2022-08-22T19:07:55.486Z,99895.06
2022-08-22T19:11:21.589Z,99903.13
2022-08-22T19:14:43.676Z,99905.81
2022-08-22T19:18:10.377Z,99901.56
2022-08-22T19:21:54.660Z,99905.94
2022-08-22T19:25:11.625Z,99906.06
2022-08-22T19:28:14.358Z,99903.84
2022-08-22T19:31:25.087Z,99912.25
2022-08-22T19:34:32.673Z,99912.03
2022-08-22T19:37:52.957Z,99907.00
2022-08-22T19:41:03.425Z,99913.81
2022-08-22T19:44:37.553Z,99915.41
2022-08-22T19:47:42.710Z,99912.38
2022-08-22T19:50:45.281Z,99910.16
2022-08-22T19:54:22.530Z,99914.25
2022-08-22T19:57:55.503Z,99916.63
2022-08-22T20:01:04.311Z,99920.13
2022-08-22T20:04:27.063Z,99921.97
2022-08-22T20:07:32.525Z,99918.31
2022-08-22T20:10:48.192Z,99921.69
2022-08-22T20:13:50.971Z,99928.34
2022-08-22T20:17:05.762Z,99919.84
2022-08-22T20:20:19.813Z,99918.44
2022-08-22T20:23:41.290Z,99921.31
2022-08-22T20:27:12.628Z,99910.25
2022-08-22T20:30:40.749Z,99919.09
2022-08-22T20:33:47.847Z,99912.00
2022-08-22T20:37:15.794Z,99905.00
2022-08-22T20:40:54.801Z,99907.69
2022-08-22T20:43:57.338Z,99901.84
2022-08-22T20:47:19.549Z,99910.25
2022-08-22T20:50:28.810Z,99904.56
2022-08-22T20:53:32.306Z,99905.66
2022-08-22T20:56:37.200Z,99901.72
2022-08-22T20:59:49.253Z,99902.69
2022-08-22T21:03:02.405Z,99901.72
2022-08-22T21:06:15.960Z,99901.91
2022-08-22T21:09:40.167Z,99897.34
2022-08-22T21:12:43.328Z,99893.75
2022-08-22T21:15:56.174Z,99888.25
2022-08-22T21:19:01.994Z,99894.22
2022-08-22T21:22:34.101Z,99887.22
2022-08-22T21:26:09.486Z,99882.62
2022-08-22T21:29:14.660Z,99883.94
2022-08-22T21:32:22.828Z,99883.22
2022-08-22T21:35:33.325Z,99881.94
2022-08-22T21:38:37.234Z,99883.84
2022-08-22T21:41:44.096Z,99895.69
2022-08-22T21:44:58.948Z,99890.62
2022-08-22T21:48:02.530Z,99890.44
2022-08-22T21:51:44.629Z,99884.59
2022-08-22T21:54:48.233Z,99896.59
2022-08-22T21:58:08.892Z,99906.06
2022-08-22T22:01:34.905Z,99901.97
2022-08-22T22:04:38.335Z,99907.47
2022-08-22T22:07:43.317Z,99901.00
2022-08-22T22:10:49.488Z,99911.41
2022-08-22T22:14:14.258Z,99920.59
2022-08-22T22:17:21.931Z,99922.69
2022-08-22T22:20:28.687Z,99935.44
2022-08-22T22:23:54.703Z,99939.25
2022-08-22T22:27:02.744Z,99929.75
2022-08-22T22:30:10.247Z,99941.63
2022-08-22T22:33:13.068Z,99932.94
2022-08-22T22:36:24.242Z,99929.19
2022-08-22T22:39:29.941Z,99942.75
2022-08-22T22:42:33.138Z,99940.09
2022-08-22T22:45:36.254Z,99945.75
2022-08-22T22:48:42.036Z,99947.97
2022-08-22T22:51:46.901Z,99942.09
2022-08-22T22:54:51.097Z,99946.72
2022-08-22T22:57:58.812Z,99951.75
2022-08-22T23:01:10.702Z,99949.38
2022-08-22T23:04:16.176Z,99953.47
2022-08-22T23:07:24.566Z,99959.19
2022-08-22T23:10:52.724Z,99956.03
2022-08-22T23:14:12.948Z,99947.31
2022-08-22T23:17:18.417Z,99944.44
2022-08-22T23:20:21.667Z,99954.25
2022-08-22T23:23:26.677Z,99948.88
2022-08-22T23:26:30.305Z,99953.03
2022-08-22T23:29:33.087Z,99951.56
2022-08-22T23:32:37.551Z,99944.81
2022-08-22T23:35:40.079Z,99946.84
2022-08-22T23:38:48.833Z,99947.87
2022-08-22T23:41:51.992Z,99950.81
2022-08-22T23:44:59.749Z,99949.94
2022-08-22T23:48:03.905Z,99946.72
2022-08-22T23:51:09.037Z,99945.50
2022-08-22T23:54:12.063Z,99947.69
2022-08-22T23:57:14.864Z,99945.66
